sensor_id;sensor_type;location;lat;lon;timestamp;pressure;altitude;pressure_sealevel;temperature;humidity
12913;BME280;6524;51.368;11.984;2022-07-01T04:06:09;99942.09;;;22.39;89.77
12913;BME280;6524;51.368;11.984;2022-07-01T04:11:10;99940.53;;;22.27;89.19
12913;BME280;6524;51.368;11.984;2022-07-01T04:16:10;99931.94;;;22.14;88.23
12913;BME280;6524;51.368;11.984;2022-07-01T04:21:11;99966.41;;;22.25;88.99
12913;BME280;6524;51.368;11.984;2022-07-01T04:26:29;99976.81;;;22.48;87.85
12913;BME280;6524;51.368;11.984;2022-07-01T04:31:30;99993.34;;;22.61;87.88
12913;BME280;6524;51.368;11.984;2022-07-01T04:36:31;100012.66;;;22.63;88.08
12913;BME280;6524;51.368;11.984;2022-07-01T04:41:32;100026.63;;;22.55;88.29
12913;BME280;6524;51.368;11.984;2022-07-01T04:51:52;100054.66;;;22.69;84.95
12913;BME280;6524;51.368;11.984;2022-07-01T04:56:52;100067.66;;;22.32;83.78
12913;BME280;6524;51.368;11.984;2022-07-01T05:01:52;100075.31;;;22.25;82.79
12913;BME280;6524;51.368;11.984;2022-07-01T05:06:53;100098.94;;;22.07;83.88
12913;BME280;6524;51.368;11.984;2022-07-01T05:11:53;100113.31;;;22.05;83.92
12913;BME280;6524;51.368;11.984;2022-07-01T05:16:54;100104.69;;;22.12;83.84
12913;BME280;6524;51.368;11.984;2022-07-01T05:21:54;100104.97;;;22.09;83.25
12913;BME280;6524;51.368;11.984;2022-07-01T05:27:01;100128.19;;;21.96;83.42
12913;BME280;6524;51.368;11.984;2022-07-01T05:32:01;100123.28;;;21.91;83.52
12913;BME280;6524;51.368;11.984;2022-07-01T05:37:02;100137.44;;;21.81;81.97
12913;BME280;6524;51.368;11.984;2022-07-01T05:42:02;100133.59;;;21.85;81.00
12913;BME280;6524;51.368;11.984;2022-07-01T05:47:03;100124.13;;;21.92;79.07
12913;BME280;6524;51.368;11.984;2022-07-01T05:52:03;100112.16;;;21.98;79.14
12913;BME280;6524;51.368;11.984;2022-07-01T05:57:04;100124.34;;;22.00;78.19
12913;BME280;6524;51.368;11.984;2022-07-01T06:02:04;100135.00;;;21.89;79.24
12913;BME280;6524;51.368;11.984;2022-07-01T06:07:05;100162.66;;;21.86;78.50
12913;BME280;6524;51.368;11.984;2022-07-01T06:12:05;100166.13;;;21.66;78.61
12913;BME280;6524;51.368;11.984;2022-07-01T06:17:06;100167.25;;;21.52;79.25
12913;BME280;6524;51.368;11.984;2022-07-01T06:22:08;100183.75;;;21.56;79.35
12913;BME280;6524;51.368;11.984;2022-07-01T06:27:09;100192.19;;;21.61;78.64
12913;BME280;6524;51.368;11.984;2022-07-01T06:32:09;100198.38;;;21.27;80.23
12913;BME280;6524;51.368;11.984;2022-07-01T06:37:09;100193.94;;;21.17;80.85
12913;BME280;6524;51.368;11.984;2022-07-01T06:42:10;100205.97;;;21.43;79.21
12913;BME280;6524;51.368;11.984;2022-07-01T06:47:10;100208.63;;;21.43;78.74
12913;BME280;6524;51.368;11.984;2022-07-01T06:52:11;100217.06;;;21.48;78.77
12913;BME280;6524;51.368;11.984;2022-07-01T06:57:11;100226.72;;;21.38;79.06
12913;BME280;6524;51.368;11.984;2022-07-01T07:02:12;100237.09;;;21.41;79.71
12913;BME280;6524;51.368;11.984;2022-07-01T07:07:12;100240.56;;;21.53;79.18
12913;BME280;6524;51.368;11.984;2022-07-01T07:12:12;100265.06;;;21.45;79.17
12913;BME280;6524;51.368;11.984;2022-07-01T07:17:12;100268.78;;;21.32;78.97
12913;BME280;6524;51.368;11.984;2022-07-01T07:22:13;100275.66;;;21.45;79.49
12913;BME280;6524;51.368;11.984;2022-07-01T07:27:13;100275.16;;;21.63;77.92
12913;BME280;6524;51.368;11.984;2022-07-01T07:32:13;100299.50;;;21.79;76.65
12913;BME280;6524;51.368;11.984;2022-07-01T07:37:14;100305.72;;;20.77;80.75
12913;BME280;6524;51.368;11.984;2022-07-01T07:42:14;100311.69;;;20.32;85.40
12913;BME280;6524;51.368;11.984;2022-07-01T07:47:14;100322.91;;;19.88;91.12
12913;BME280;6524;51.368;11.984;2022-07-01T07:52:15;100312.69;;;19.71;94.70
12913;BME280;6524;51.368;11.984;2022-07-01T07:57:15;100332.19;;;19.44;97.42
12913;BME280;6524;51.368;11.984;2022-07-01T08:02:16;100332.03;;;19.58;98.07
12913;BME280;6524;51.368;11.984;2022-07-01T08:07:16;100346.03;;;19.35;98.12
12913;BME280;6524;51.368;11.984;2022-07-01T08:12:17;100342.00;;;19.68;98.57
12913;BME280;6524;51.368;11.984;2022-07-01T08:17:18;100334.75;;;20.43;94.56
12913;BME280;6524;51.368;11.984;2022-07-01T08:22:19;100324.50;;;20.63;92.91
12913;BME280;6524;51.368;11.984;2022-07-01T08:27:20;100336.03;;;20.62;92.19
12913;BME280;6524;51.368;11.984;2022-07-01T08:32:20;100350.44;;;20.33;92.01
12913;BME280;6524;51.368;11.984;2022-07-01T08:37:22;100335.94;;;20.15;93.38
12913;BME280;6524;51.368;11.984;2022-07-01T08:42:23;100358.97;;;20.26;91.80
12913;BME280;6524;51.368;11.984;2022-07-01T08:47:23;100333.63;;;20.10;92.91
12913;BME280;6524;51.368;11.984;2022-07-01T08:52:23;100305.72;;;20.66;91.43
12913;BME280;6524;51.368;11.984;2022-07-01T08:57:25;100327.91;;;20.76;89.38
12913;BME280;6524;51.368;11.984;2022-07-01T09:02:25;100340.69;;;20.82;88.02
12913;BME280;6524;51.368;11.984;2022-07-01T09:07:31;100343.06;;;20.74;89.10
12913;BME280;6524;51.368;11.984;2022-07-01T09:12:40;100352.19;;;20.70;88.90
12913;BME280;6524;51.368;11.984;2022-07-01T09:17:41;100377.03;;;20.80;88.48
12913;BME280;6524;51.368;11.984;2022-07-01T09:22:56;100373.69;;;20.89;88.12
12913;BME280;6524;51.368;11.984;2022-07-01T09:28:06;100381.00;;;20.50;88.85
12913;BME280;6524;51.368;11.984;2022-07-01T09:33:28;100396.50;;;20.68;88.87
12913;BME280;6524;51.368;11.984;2022-07-01T09:38:31;100407.44;;;20.87;87.55
12913;BME280;6524;51.368;11.984;2022-07-01T09:43:33;100425.03;;;20.88;86.50
12913;BME280;6524;51.368;11.984;2022-07-01T09:53:35;100418.22;;;20.73;87.51
12913;BME280;6524;51.368;11.984;2022-07-01T09:58:35;100412.28;;;20.45;88.03
12913;BME280;6524;51.368;11.984;2022-07-01T10:03:39;100413.19;;;19.96;92.25
12913;BME280;6524;51.368;11.984;2022-07-01T10:08:58;100405.50;;;20.17;92.17
12913;BME280;6524;51.368;11.984;2022-07-01T10:14:04;100407.56;;;20.62;90.42
12913;BME280;6524;51.368;11.984;2022-07-01T10:19:25;100397.44;;;21.93;86.31
12913;BME280;6524;51.368;11.984;2022-07-01T10:24:26;100412.72;;;22.78;80.21
12913;BME280;6524;51.368;11.984;2022-07-01T10:29:32;100416.72;;;23.26;77.63
12913;BME280;6524;51.368;11.984;2022-07-01T10:34:39;100431.50;;;23.40;76.45
12913;BME280;6524;51.368;11.984;2022-07-01T10:40:00;100441.25;;;23.29;75.24
12913;BME280;6524;51.368;11.984;2022-07-01T10:45:02;100433.91;;;22.90;77.32
12913;BME280;6524;51.368;11.984;2022-07-01T10:55:09;100441.75;;;21.59;82.56
12913;BME280;6524;51.368;11.984;2022-07-01T11:05:12;100454.66;;;19.96;91.28
12913;BME280;6524;51.368;11.984;2022-07-01T11:10:15;100459.22;;;19.55;96.57
12913;BME280;6524;51.368;11.984;2022-07-01T11:15:16;100469.19;;;19.64;97.92
12913;BME280;6524;51.368;11.984;2022-07-01T11:20:17;100481.06;;;19.72;97.85
12913;BME280;6524;51.368;11.984;2022-07-01T11:25:19;100490.09;;;19.55;96.40
12913;BME280;6524;51.368;11.984;2022-07-01T11:30:21;100499.63;;;19.57;95.77
12913;BME280;6524;51.368;11.984;2022-07-01T11:35:27;100495.38;;;19.42;95.37
12913;BME280;6524;51.368;11.984;2022-07-01T11:40:46;100503.00;;;19.34;96.38
12913;BME280;6524;51.368;11.984;2022-07-01T11:45:47;100504.06;;;19.31;95.73
12913;BME280;6524;51.368;11.984;2022-07-01T11:50:47;100501.09;;;19.36;96.69
12913;BME280;6524;51.368;11.984;2022-07-01T11:55:47;100499.84;;;19.41;95.66
12913;BME280;6524;51.368;11.984;2022-07-01T12:00:48;100511.16;;;19.44;95.10
12913;BME280;6524;51.368;11.984;2022-07-01T12:05:49;100501.72;;;19.52;95.62
12913;BME280;6524;51.368;11.984;2022-07-01T12:10:52;100496.69;;;19.49;93.88
12913;BME280;6524;51.368;11.984;2022-07-01T12:15:53;100507.25;;;19.49;92.64
12913;BME280;6524;51.368;11.984;2022-07-01T12:20:53;100496.75;;;19.35;92.34
12913;BME280;6524;51.368;11.984;2022-07-01T12:25:54;100493.91;;;19.38;92.19
12913;BME280;6524;51.368;11.984;2022-07-01T12:31:00;100472.88;;;19.49;91.76
12913;BME280;6524;51.368;11.984;2022-07-01T12:36:02;100479.44;;;19.56;91.43
12913;BME280;6524;51.368;11.984;2022-07-01T12:41:26;100488.22;;;19.57;90.65
12913;BME280;6524;51.368;11.984;2022-07-01T12:46:28;100486.94;;;19.62;89.97
12913;BME280;6524;51.368;11.984;2022-07-01T12:51:32;100493.53;;;19.70;89.74
12913;BME280;6524;51.368;11.984;2022-07-01T12:56:32;100497.56;;;19.75;88.91
12913;BME280;6524;51.368;11.984;2022-07-01T13:01:33;100507.09;;;19.78;89.04
12913;BME280;6524;51.368;11.984;2022-07-01T13:06:33;100526.53;;;19.64;89.19
12913;BME280;6524;51.368;11.984;2022-07-01T13:11:33;100531.75;;;19.78;90.06
12913;BME280;6524;51.368;11.984;2022-07-01T13:16:34;100520.41;;;19.89;89.06
12913;BME280;6524;51.368;11.984;2022-07-01T13:21:34;100534.16;;;20.20;87.71
12913;BME280;6524;51.368;11.984;2022-07-01T13:26:34;100533.50;;;20.54;87.19
12913;BME280;6524;51.368;11.984;2022-07-01T13:31:35;100533.00;;;20.73;85.25
12913;BME280;6524;51.368;11.984;2022-07-01T13:36:36;100544.00;;;20.80;81.00
12913;BME280;6524;51.368;11.984;2022-07-01T13:41:36;100541.09;;;21.20;82.53
12913;BME280;6524;51.368;11.984;2022-07-01T13:46:37;100552.16;;;21.95;77.08
12913;BME280;6524;51.368;11.984;2022-07-01T13:51:38;100572.03;;;22.36;72.97
12913;BME280;6524;51.368;11.984;2022-07-01T13:56:38;100576.38;;;22.49;71.35
12913;BME280;6524;51.368;11.984;2022-07-01T14:01:39;100589.16;;;22.55;71.36
12913;BME280;6524;51.368;11.984;2022-07-01T14:06:39;100600.38;;;22.25;72.53
12913;BME280;6524;51.368;11.984;2022-07-01T14:11:39;100606.75;;;22.11;72.22
12913;BME280;6524;51.368;11.984;2022-07-01T14:16:40;100614.72;;;22.11;70.96
12913;BME280;6524;51.368;11.984;2022-07-01T14:21:40;100615.25;;;21.81;70.14
12913;BME280;6524;51.368;11.984;2022-07-01T14:26:40;100620.72;;;21.55;71.67
12913;BME280;6524;51.368;11.984;2022-07-01T14:31:41;100606.53;;;21.43;72.81
12913;BME280;6524;51.368;11.984;2022-07-01T14:36:41;100615.47;;;21.42;72.19
12913;BME280;6524;51.368;11.984;2022-07-01T14:41:41;100613.03;;;21.39;71.24
12913;BME280;6524;51.368;11.984;2022-07-01T14:46:42;100616.69;;;21.49;72.66
12913;BME280;6524;51.368;11.984;2022-07-01T14:51:43;100631.25;;;21.68;71.15
12913;BME280;6524;51.368;11.984;2022-07-01T14:56:43;100645.94;;;21.85;70.17
12913;BME280;6524;51.368;11.984;2022-07-01T15:01:44;100639.56;;;21.63;71.15
12913;BME280;6524;51.368;11.984;2022-07-01T15:06:44;100646.94;;;21.71;70.08
12913;BME280;6524;51.368;11.984;2022-07-01T15:11:44;100638.16;;;21.46;69.01
12913;BME280;6524;51.368;11.984;2022-07-01T15:16:45;100659.91;;;21.15;70.96
12913;BME280;6524;51.368;11.984;2022-07-01T15:21:46;100669.75;;;20.76;73.18
12913;BME280;6524;51.368;11.984;2022-07-01T15:26:46;100667.88;;;20.65;75.18
12913;BME280;6524;51.368;11.984;2022-07-01T15:31:47;100677.50;;;20.53;76.04
12913;BME280;6524;51.368;11.984;2022-07-01T15:36:48;100685.84;;;20.34;78.68
12913;BME280;6524;51.368;11.984;2022-07-01T15:41:49;100684.13;;;20.46;79.61
12913;BME280;6524;51.368;11.984;2022-07-01T15:46:49;100671.03;;;20.58;78.09
12913;BME280;6524;51.368;11.984;2022-07-01T15:51:49;100657.25;;;20.52;79.05
12913;BME280;6524;51.368;11.984;2022-07-01T15:56:51;100641.25;;;20.41;79.13
12913;BME280;6524;51.368;11.984;2022-07-01T16:01:51;100640.41;;;20.41;80.16
12913;BME280;6524;51.368;11.984;2022-07-01T16:06:53;100648.78;;;20.22;81.98
12913;BME280;6524;51.368;11.984;2022-07-01T16:11:54;100654.16;;;20.33;81.06
12913;BME280;6524;51.368;11.984;2022-07-01T16:16:56;100660.09;;;20.49;78.83
12913;BME280;6524;51.368;11.984;2022-07-01T16:22:01;100655.56;;;20.51;78.42
12913;BME280;6524;51.368;11.984;2022-07-01T16:27:02;100674.88;;;20.53;78.22
12913;BME280;6524;51.368;11.984;2022-07-01T16:32:03;100665.09;;;20.54;78.61
12913;BME280;6524;51.368;11.984;2022-07-01T16:37:08;100679.31;;;20.53;78.05
12913;BME280;6524;51.368;11.984;2022-07-01T16:42:12;100664.03;;;20.31;78.47
12913;BME280;6524;51.368;11.984;2022-07-01T16:47:23;100664.97;;;20.43;78.29
12913;BME280;6524;51.368;11.984;2022-07-01T16:52:36;100668.25;;;20.46;78.44
12913;BME280;6524;51.368;11.984;2022-07-01T16:57:48;100692.44;;;20.54;77.47
12913;BME280;6524;51.368;11.984;2022-07-01T17:02:50;100701.56;;;20.76;76.56
12913;BME280;6524;51.368;11.984;2022-07-01T17:07:52;100701.53;;;20.38;76.41
12913;BME280;6524;51.368;11.984;2022-07-01T17:12:54;100701.63;;;20.49;77.74
12913;BME280;6524;51.368;11.984;2022-07-01T17:17:55;100721.97;;;20.48;78.08
12913;BME280;6524;51.368;11.984;2022-07-01T17:23:46;100712.69;;;20.55;75.54
12913;BME280;6524;51.368;11.984;2022-07-01T17:28:56;100720.84;;;20.52;76.90
12913;BME280;6524;51.368;11.984;2022-07-01T17:33:57;100717.00;;;20.31;76.18
12913;BME280;6524;51.368;11.984;2022-07-01T17:39:12;100709.56;;;20.23;77.53
12913;BME280;6524;51.368;11.984;2022-07-01T17:44:13;100732.59;;;20.08;77.13
12913;BME280;6524;51.368;11.984;2022-07-01T17:49:15;100752.50;;;20.01;78.94
12913;BME280;6524;51.368;11.984;2022-07-01T17:54:18;100751.28;;;20.20;79.70
12913;BME280;6524;51.368;11.984;2022-07-01T17:59:19;100742.59;;;20.30;78.98
12913;BME280;6524;51.368;11.984;2022-07-01T18:04:21;100748.63;;;20.20;79.46
12913;BME280;6524;51.368;11.984;2022-07-01T18:09:23;100773.69;;;20.01;81.03
12913;BME280;6524;51.368;11.984;2022-07-01T18:15:00;100785.34;;;20.11;81.77
12913;BME280;6524;51.368;11.984;2022-07-01T18:20:05;100787.13;;;19.98;81.18
12913;BME280;6524;51.368;11.984;2022-07-01T18:25:07;100777.03;;;19.91;83.16
12913;BME280;6524;51.368;11.984;2022-07-01T18:30:11;100784.63;;;19.82;83.75
12913;BME280;6524;51.368;11.984;2022-07-01T18:35:13;100779.03;;;19.87;83.49
12913;BME280;6524;51.368;11.984;2022-07-01T18:40:16;100778.94;;;19.88;84.29
12913;BME280;6524;51.368;11.984;2022-07-01T18:45:16;100778.56;;;19.80;84.42
12913;BME280;6524;51.368;11.984;2022-07-01T18:50:17;100779.44;;;19.81;84.29
12913;BME280;6524;51.368;11.984;2022-07-01T18:55:17;100784.94;;;19.78;85.28
12913;BME280;6524;51.368;11.984;2022-07-01T19:00:20;100790.75;;;19.83;85.42
12913;BME280;6524;51.368;11.984;2022-07-01T19:05:21;100787.22;;;19.70;83.87
12913;BME280;6524;51.368;11.984;2022-07-01T19:10:22;100805.91;;;19.67;84.91
12913;BME280;6524;51.368;11.984;2022-07-01T19:15:23;100821.59;;;19.70;84.47
12913;BME280;6524;51.368;11.984;2022-07-01T19:20:23;100819.72;;;19.43;85.75
12913;BME280;6524;51.368;11.984;2022-07-01T19:25:23;100818.97;;;19.27;86.91
12913;BME280;6524;51.368;11.984;2022-07-01T19:30:24;100823.50;;;19.10;87.97
12913;BME280;6524;51.368;11.984;2022-07-01T19:35:24;100820.69;;;18.99;88.92
12913;BME280;6524;51.368;11.984;2022-07-01T19:40:25;100833.38;;;18.92;88.76
12913;BME280;6524;51.368;11.984;2022-07-01T19:45:25;100837.53;;;18.82;89.76
12913;BME280;6524;51.368;11.984;2022-07-01T19:50:26;100828.13;;;18.62;91.57
12913;BME280;6524;51.368;11.984;2022-07-01T19:55:26;100838.56;;;18.49;92.23
12913;BME280;6524;51.368;11.984;2022-07-01T20:00:27;100848.63;;;18.43;92.65
12913;BME280;6524;51.368;11.984;2022-07-01T20:05:28;100864.28;;;18.46;90.69
12913;BME280;6524;51.368;11.984;2022-07-01T20:10:28;100860.88;;;18.44;92.10
12913;BME280;6524;51.368;11.984;2022-07-01T20:15:30;100869.75;;;18.43;93.63
12913;BME280;6524;51.368;11.984;2022-07-01T20:20:33;100874.94;;;18.29;93.06
12913;BME280;6524;51.368;11.984;2022-07-01T20:25:33;100886.69;;;18.23;93.16
12913;BME280;6524;51.368;11.984;2022-07-01T20:30:33;100897.38;;;18.21;92.42
12913;BME280;6524;51.368;11.984;2022-07-01T20:35:34;100900.91;;;18.20;93.01
12913;BME280;6524;51.368;11.984;2022-07-01T20:40:35;100910.72;;;18.18;93.13
12913;BME280;6524;51.368;11.984;2022-07-01T20:45:35;100921.63;;;18.12;93.22
12913;BME280;6524;51.368;11.984;2022-07-01T20:50:36;100920.06;;;18.08;93.26
12913;BME280;6524;51.368;11.984;2022-07-01T20:55:36;100936.50;;;18.13;94.02
12913;BME280;6524;51.368;11.984;2022-07-01T21:00:36;100944.19;;;18.02;95.43
12913;BME280;6524;51.368;11.984;2022-07-01T21:05:37;100951.66;;;17.94;96.50
12913;BME280;6524;51.368;11.984;2022-07-01T21:10:37;100952.16;;;17.85;97.89
12913;BME280;6524;51.368;11.984;2022-07-01T21:15:38;100972.06;;;17.90;97.97
12913;BME280;6524;51.368;11.984;2022-07-01T21:20:38;100975.47;;;17.92;97.70
12913;BME280;6524;51.368;11.984;2022-07-01T21:25:38;100976.66;;;17.87;96.81
12913;BME280;6524;51.368;11.984;2022-07-01T21:30:39;100971.06;;;17.93;96.31
12913;BME280;6524;51.368;11.984;2022-07-01T21:35:39;100964.75;;;17.95;94.94
12913;BME280;6524;51.368;11.984;2022-07-01T21:40:40;100972.44;;;18.00;93.89
12913;BME280;6524;51.368;11.984;2022-07-01T21:45:42;100965.97;;;17.90;93.68
12913;BME280;6524;51.368;11.984;2022-07-01T21:50:43;100972.75;;;17.94;92.76
12913;BME280;6524;51.368;11.984;2022-07-01T21:55:45;100967.81;;;17.88;93.38
12913;BME280;6524;51.368;11.984;2022-07-01T22:00:45;100976.84;;;17.84;93.39
12913;BME280;6524;51.368;11.984;2022-07-01T22:05:46;100974.63;;;17.92;93.48
12913;BME280;6524;51.368;11.984;2022-07-01T22:11:06;100971.06;;;17.93;94.18
12913;BME280;6524;51.368;11.984;2022-07-01T22:16:07;100971.47;;;17.85;94.64
12913;BME280;6524;51.368;11.984;2022-07-01T22:21:10;100982.13;;;17.84;95.13
12913;BME280;6524;51.368;11.984;2022-07-01T22:26:11;100976.59;;;17.71;96.57
12913;BME280;6524;51.368;11.984;2022-07-01T22:31:13;100984.91;;;17.63;96.97
12913;BME280;6524;51.368;11.984;2022-07-01T22:36:14;100979.94;;;17.57;97.98
12913;BME280;6524;51.368;11.984;2022-07-01T22:41:16;100987.84;;;17.57;98.89
12913;BME280;6524;51.368;11.984;2022-07-01T22:46:27;100974.03;;;17.69;97.25
12913;BME280;6524;51.368;11.984;2022-07-01T22:51:48;100982.72;;;17.71;96.44
12913;BME280;6524;51.368;11.984;2022-07-01T22:56:51;100988.31;;;17.65;95.44
12913;BME280;6524;51.368;11.984;2022-07-01T23:01:52;100976.19;;;17.61;96.17
12913;BME280;6524;51.368;11.984;2022-07-01T23:07:02;100981.28;;;17.48;96.32
12913;BME280;6524;51.368;11.984;2022-07-01T23:12:05;100987.41;;;17.49;96.59
12913;BME280;6524;51.368;11.984;2022-07-01T23:17:10;100978.78;;;17.63;96.16
12913;BME280;6524;51.368;11.984;2022-07-01T23:22:12;100985.38;;;17.54;96.19
12913;BME280;6524;51.368;11.984;2022-07-01T23:27:15;100981.81;;;17.55;97.13
12913;BME280;6524;51.368;11.984;2022-07-01T23:32:18;100982.19;;;17.65;96.76
12913;BME280;6524;51.368;11.984;2022-07-01T23:37:19;100969.75;;;17.67;96.59
12913;BME280;6524;51.368;11.984;2022-07-01T23:42:20;100980.84;;;17.73;96.31
12913;BME280;6524;51.368;11.984;2022-07-01T23:47:20;100972.72;;;17.78;96.30
12913;BME280;6524;51.368;11.984;2022-07-01T23:52:21;100977.16;;;17.77;96.08
12913;BME280;6524;51.368;11.984;2022-07-01T23:57:22;100963.31;;;17.72;96.80
